createdAt,value
2023-03-17T00:02:20.008Z,4.29
2023-03-17T00:07:26.382Z,4.27
2023-03-17T00:12:30.624Z,4.25
2023-03-17T00:17:34.363Z,4.22
2023-03-17T00:22:40.004Z,4.17
2023-03-17T00:27:43.026Z,4.14
2023-03-17T00:32:47.137Z,4.13
2023-03-17T00:37:53.616Z,4.15
2023-03-17T00:42:56.579Z,4.15
2023-03-17T00:47:59.940Z,4.10
2023-03-17T00:53:04.626Z,4.21
2023-03-17T00:58:14.310Z,4.34
2023-03-17T01:03:17.303Z,4.35
2023-03-17T01:08:23.650Z,4.37
2023-03-17T01:13:26.786Z,4.36
2023-03-17T01:18:30.350Z,4.33
2023-03-17T01:23:35.338Z,4.27
2023-03-17T01:28:38.528Z,4.22
2023-03-17T01:33:41.913Z,4.27
2023-03-17T01:38:48.140Z,4.20
2023-03-17T01:43:51.341Z,4.22
2023-03-17T01:49:07.388Z,4.19
2023-03-17T01:54:17.177Z,4.16
2023-03-17T01:59:23.873Z,4.13
2023-03-17T02:04:30.019Z,4.07
2023-03-17T02:09:35.515Z,4.10
2023-03-17T02:14:38.401Z,4.13
2023-03-17T02:19:42.523Z,4.12
2023-03-17T02:24:49.825Z,4.03
2023-03-17T02:29:52.716Z,3.97
2023-03-17T02:34:55.633Z,3.93
2023-03-17T02:40:01.143Z,3.85
2023-03-17T02:45:04.352Z,3.86
2023-03-17T02:50:08.635Z,3.83
2023-03-17T02:55:12.798Z,3.84
2023-03-17T03:00:16.246Z,3.79
2023-03-17T03:05:22.401Z,3.71
2023-03-17T03:10:27.082Z,3.67
2023-03-17T03:15:31.069Z,3.58
2023-03-17T03:20:33.856Z,3.48
2023-03-17T03:25:40.881Z,3.42
2023-03-17T03:30:44.697Z,3.32
2023-03-17T03:35:47.577Z,3.31
2023-03-17T03:40:51.770Z,3.35
2023-03-17T03:45:54.667Z,3.32
2023-03-17T03:50:59.056Z,3.38
2023-03-17T03:56:08.249Z,3.36
2023-03-17T04:01:11.425Z,3.24
2023-03-17T04:06:14.314Z,3.38
2023-03-17T04:11:18.832Z,3.24
2023-03-17T04:16:21.718Z,3.14
2023-03-17T04:21:25.030Z,2.97
2023-03-17T04:26:29.299Z,2.88
2023-03-17T04:31:32.163Z,2.83
2023-03-17T04:36:35.100Z,2.92
2023-03-17T04:41:39.637Z,2.92
2023-03-17T04:46:42.778Z,2.87
2023-03-17T04:51:45.791Z,2.82
2023-03-17T04:56:51.043Z,2.71
2023-03-17T05:01:53.838Z,2.61
2023-03-17T05:06:58.733Z,2.48
2023-03-17T05:12:03.318Z,2.39
2023-03-17T05:17:07.177Z,2.31
2023-03-17T05:22:10.103Z,2.30
2023-03-17T05:27:15.406Z,2.21
2023-03-17T05:32:19.824Z,2.03
2023-03-17T05:37:23.001Z,1.90
2023-03-17T05:42:27.824Z,1.85
2023-03-17T05:47:30.643Z,1.83
2023-03-17T05:52:35.488Z,1.90
2023-03-17T05:57:39.762Z,1.83
2023-03-17T06:02:43.447Z,1.81
2023-03-17T06:07:54.044Z,1.87
2023-03-17T06:13:03.983Z,2.03
2023-03-17T06:18:07.415Z,2.27
2023-03-17T06:23:11.493Z,2.59
2023-03-17T06:28:15.694Z,2.93
2023-03-17T06:33:19.857Z,3.45
2023-03-17T06:38:24.581Z,3.99
2023-03-17T06:43:29.781Z,4.52
2023-03-17T06:48:32.856Z,4.76
2023-03-17T06:53:36.230Z,4.96
2023-03-17T06:58:42.197Z,5.05
2023-03-17T07:03:46.607Z,5.32
2023-03-17T07:08:49.434Z,5.68
2023-03-17T07:13:53.686Z,5.91
2023-03-17T07:18:56.568Z,6.07
2023-03-17T07:23:59.483Z,6.61
2023-03-17T07:29:03.642Z,6.61
2023-03-17T07:34:06.845Z,7.06
2023-03-17T07:39:12.091Z,7.50
2023-03-17T07:44:19.626Z,7.93
2023-03-17T07:49:39.952Z,8.05
2023-03-17T07:54:43.527Z,8.42
2023-03-17T07:59:47.808Z,8.59
2023-03-17T08:04:50.969Z,8.79
2023-03-17T08:09:53.956Z,8.93
2023-03-17T08:14:58.173Z,9.15
2023-03-17T08:20:02.053Z,9.20
2023-03-17T08:25:09.694Z,9.35
2023-03-17T08:30:17.289Z,9.80
2023-03-17T08:35:22.058Z,9.86
2023-03-17T08:40:25.053Z,9.85
2023-03-17T08:45:30.642Z,9.81
2023-03-17T08:50:36.232Z,9.85
2023-03-17T08:55:41.246Z,10.27
2023-03-17T09:00:46.844Z,10.07
2023-03-17T09:05:50.422Z,9.99
2023-03-17T09:10:53.598Z,10.12
2023-03-17T09:15:57.887Z,10.46
2023-03-17T09:21:03.560Z,10.29
2023-03-17T09:26:07.314Z,10.47
2023-03-17T09:31:12.899Z,10.82
2023-03-17T09:36:16.323Z,10.90
2023-03-17T09:41:36.309Z,10.81
2023-03-17T09:46:54.618Z,11.20
2023-03-17T09:51:58.388Z,11.50
2023-03-17T09:57:07.766Z,11.55
2023-03-17T10:02:20.222Z,11.66
2023-03-17T10:07:29.888Z,11.77
2023-03-17T10:39:28.024Z,13.00
2023-03-17T10:44:45.274Z,12.98
2023-03-17T10:49:50.551Z,13.75
2023-03-17T10:54:54.768Z,13.49
2023-03-17T11:00:01.715Z,14.01
2023-03-17T11:05:09.421Z,14.39
2023-03-17T11:10:22.034Z,14.85
2023-03-17T11:15:27.421Z,15.11
2023-03-17T11:20:48.202Z,15.21
2023-03-17T11:25:59.234Z,14.74
2023-03-17T11:31:09.474Z,14.86
2023-03-17T11:36:25.874Z,14.66
2023-03-17T11:41:48.513Z,14.58
2023-03-17T11:47:00.485Z,15.11
2023-03-17T11:52:10.953Z,14.75
2023-03-17T11:57:21.849Z,14.39
2023-03-17T12:02:32.886Z,14.29
2023-03-17T12:07:41.760Z,14.20
2023-03-17T12:12:53.144Z,14.53
2023-03-17T12:18:00.338Z,14.24
2023-03-17T12:23:07.798Z,14.49
2023-03-17T12:28:17.026Z,14.45
2023-03-17T12:33:26.473Z,14.66
2023-03-17T12:38:38.490Z,14.68
2023-03-17T12:44:02.657Z,15.32
2023-03-17T12:49:42.199Z,16.84
2023-03-17T12:54:49.498Z,17.21
2023-03-17T13:00:01.607Z,17.06
2023-03-17T13:05:09.166Z,16.55
2023-03-17T13:10:20.241Z,16.30
2023-03-17T13:16:06.559Z,16.06
2023-03-17T13:21:13.763Z,16.23
2023-03-17T13:26:20.777Z,15.67
2023-03-17T13:31:35.196Z,15.21
2023-03-17T13:36:47.511Z,15.11
2023-03-17T13:42:17.611Z,15.14
2023-03-17T13:47:34.665Z,14.43
2023-03-17T13:52:43.169Z,14.54
2023-03-17T13:57:57.085Z,14.43
2023-03-17T14:03:06.945Z,14.33
2023-03-17T14:08:18.319Z,14.34
2023-03-17T14:13:25.646Z,14.19
2023-03-17T14:18:36.460Z,14.11
2023-03-17T14:23:40.876Z,14.20
2023-03-17T14:28:43.931Z,14.41
2023-03-17T14:33:49.155Z,14.28
2023-03-17T14:38:55.653Z,14.46
2023-03-17T14:44:00.619Z,14.48
2023-03-17T14:49:15.846Z,14.42
2023-03-17T14:54:22.618Z,14.41
2023-03-17T14:59:36.919Z,14.22
2023-03-17T15:04:51.254Z,13.93
2023-03-17T15:10:00.605Z,13.84
2023-03-17T15:15:06.646Z,13.89
2023-03-17T15:20:18.444Z,13.88
2023-03-17T15:25:28.909Z,13.63
2023-03-17T15:30:46.255Z,13.69
2023-03-17T15:35:52.492Z,13.52
2023-03-17T15:40:56.703Z,13.40
2023-03-17T15:46:03.416Z,13.43
2023-03-17T15:51:08.480Z,13.57
2023-03-17T15:56:16.814Z,13.51
2023-03-17T16:01:24.128Z,13.46
2023-03-17T16:06:29.471Z,13.21
2023-03-17T16:11:36.641Z,13.27
2023-03-17T16:16:43.707Z,13.10
2023-03-17T16:21:48.952Z,12.87
2023-03-17T16:26:52.081Z,12.60
2023-03-17T16:31:55.386Z,12.46
2023-03-17T16:36:59.661Z,12.31
2023-03-17T16:42:02.568Z,12.24
2023-03-17T16:47:06.744Z,12.19
2023-03-17T16:52:12.702Z,12.12
2023-03-17T16:57:21.536Z,12.08
2023-03-17T17:02:24.427Z,12.03
2023-03-17T17:07:29.727Z,11.99
2023-03-17T17:12:33.728Z,11.91
2023-03-17T17:17:38.373Z,11.83
2023-03-17T17:22:42.956Z,11.77
2023-03-17T17:27:48.784Z,11.69
2023-03-17T17:32:53.803Z,11.61
2023-03-17T17:38:00.603Z,11.53
2023-03-17T17:43:03.485Z,11.46
2023-03-17T17:48:06.505Z,11.38
2023-03-17T17:53:12.925Z,11.33
2023-03-17T17:58:17.098Z,11.32
2023-03-17T18:03:24.512Z,11.25
2023-03-17T18:08:28.851Z,11.18
2023-03-17T18:13:34.405Z,11.12
2023-03-17T18:18:38.710Z,11.04
2023-03-17T18:23:47.735Z,10.98
2023-03-17T18:28:51.632Z,10.94
2023-03-17T18:33:59.691Z,10.88
2023-03-17T18:39:05.542Z,10.82
2023-03-17T18:44:10.817Z,10.73
2023-03-17T18:49:13.823Z,10.63
2023-03-17T18:54:18.057Z,10.58
2023-03-17T18:59:21.549Z,10.51
2023-03-17T19:04:24.383Z,10.45
2023-03-17T19:09:28.649Z,10.40
2023-03-17T19:14:31.853Z,10.32
2023-03-17T19:19:36.773Z,10.31
2023-03-17T19:24:41.970Z,10.24
2023-03-17T19:29:44.876Z,10.18
2023-03-17T19:34:48.809Z,10.09
2023-03-17T19:39:54.061Z,9.98
2023-03-17T19:44:57.093Z,9.93
2023-03-17T19:49:59.932Z,9.88
2023-03-17T19:55:08.034Z,9.82
2023-03-17T20:00:13.894Z,9.80
2023-03-17T20:05:19.068Z,9.76
2023-03-17T20:10:26.568Z,9.75
2023-03-17T20:15:29.858Z,9.73
2023-03-17T20:20:33.012Z,9.69
2023-03-17T20:25:37.840Z,9.67
2023-03-17T20:30:41.895Z,9.68
2023-03-17T20:35:48.084Z,9.69
2023-03-17T20:40:52.524Z,9.67
2023-03-17T20:45:56.333Z,9.65
2023-03-17T20:51:00.146Z,9.66
2023-03-17T20:56:04.755Z,9.62
2023-03-17T21:01:08.009Z,9.58
2023-03-17T21:06:11.662Z,9.57
2023-03-17T21:11:17.940Z,9.55
2023-03-17T21:16:22.586Z,9.49
2023-03-17T21:21:26.946Z,9.48
2023-03-17T21:26:32.290Z,9.41
2023-03-17T21:31:35.633Z,9.42
2023-03-17T21:36:38.675Z,9.40
2023-03-17T21:41:43.639Z,9.36
2023-03-17T21:46:49.192Z,9.32
2023-03-17T21:51:52.972Z,9.27
2023-03-17T21:56:58.476Z,9.24
2023-03-17T22:02:02.933Z,9.20
2023-03-17T22:07:07.028Z,9.16
2023-03-17T22:12:13.768Z,9.14
2023-03-17T22:17:16.796Z,9.16
2023-03-17T22:22:22.288Z,9.06
2023-03-17T22:27:27.563Z,9.03
2023-03-17T22:32:36.425Z,9.06
2023-03-17T22:37:40.435Z,8.96
2023-03-17T22:42:45.837Z,8.97
2023-03-17T22:47:48.882Z,8.97
2023-03-17T22:52:53.759Z,8.96
2023-03-17T22:57:58.199Z,8.94
2023-03-17T23:03:02.073Z,8.93
2023-03-17T23:08:05.774Z,8.85
2023-03-17T23:13:10.588Z,8.82
2023-03-17T23:18:14.180Z,8.83
2023-03-17T23:23:19.877Z,8.87
2023-03-17T23:28:25.141Z,8.89
2023-03-17T23:33:29.367Z,8.84
2023-03-17T23:38:34.223Z,8.74
2023-03-17T23:43:46.698Z,8.74
2023-03-17T23:48:55.485Z,8.72
2023-03-17T23:54:00.349Z,8.67
2023-03-17T23:59:07.408Z,8.57
